Time;durP1;ratioP1;P1;durP2;ratioP2;P2;SDS_P1;SDS_P2;PMS_P1;PMS_P2;Temp;Humidity;BMP_temperature;BMP_pressure;BME280_temperature;BME280_humidity;BME280_pressure;Samples;Min_cycle;Max_cycle;Signal;HPM_P1;HPM_P2
2022/11/03 00:01:11;;;;;;;;;;;;;;;19.86;33.24;99081.97;4956388;29;20005;-70
2022/11/03 00:03:36;;;;;;;;;;;;;;;19.87;33.31;99078.31;4955025;29;20313;-71
2022/11/03 00:06:04;;;;;;;;;;;;;;;19.86;33.26;99081.97;4956293;29;19926;-70
2022/11/03 00:08:37;;;;;;;;;;;;;;;19.87;33.31;99080.16;4938846;29;20334;-71
2022/11/03 00:11:03;;;;;;;;;;;;;;;19.88;33.47;99087.94;4938619;29;20013;-71
2022/11/03 00:13:28;;;;;;;;;;;;;;;19.88;33.32;99082.63;4954943;29;19961;-71
2022/11/03 00:15:53;;;;;;;;;;;;;;;19.90;33.32;99084.28;4955703;29;19919;-70
2022/11/03 00:18:18;;;;;;;;;;;;;;;19.89;33.45;99080.78;4937975;29;19925;-71
2022/11/03 00:20:44;;;;;;;;;;;;;;;19.88;33.50;99084.47;4954632;29;20310;-70
2022/11/03 00:23:09;;;;;;;;;;;;;;;19.88;33.53;99077.34;4954584;29;20386;-71
2022/11/03 00:25:34;;;;;;;;;;;;;;;19.90;33.62;99077.16;4954796;29;19918;-71
2022/11/03 00:28:00;;;;;;;;;;;;;;;19.92;33.71;99074.34;4954153;29;19973;-70
2022/11/03 00:30:25;;;;;;;;;;;;;;;19.92;33.51;99071.69;4954381;29;19918;-70
2022/11/03 00:32:50;;;;;;;;;;;;;;;19.92;33.54;99080.47;4955597;29;20409;-70
2022/11/03 00:35:15;;;;;;;;;;;;;;;19.93;33.46;99079.47;4956461;28;20001;-71
2022/11/03 00:37:41;;;;;;;;;;;;;;;19.93;33.56;99082.13;4970114;28;20517;-70
2022/11/03 00:40:06;;;;;;;;;;;;;;;19.93;33.48;99081.31;4974412;28;19918;-70
2022/11/03 00:42:33;;;;;;;;;;;;;;;19.94;33.48;99088.25;4974466;28;19929;-70
2022/11/03 00:44:59;;;;;;;;;;;;;;;19.94;33.28;99093.53;4989680;28;20275;-70
2022/11/03 00:47:24;;;;;;;;;;;;;;;19.93;33.21;99097.19;4973144;28;19948;-71
2022/11/03 00:49:49;;;;;;;;;;;;;;;19.92;33.25;99101.66;4974378;28;19918;-70
2022/11/03 00:52:15;;;;;;;;;;;;;;;19.90;33.29;99108.94;4954707;28;19981;-70
2022/11/03 00:54:40;;;;;;;;;;;;;;;19.90;33.30;99102.84;4963746;28;19992;-70
2022/11/03 00:57:05;;;;;;;;;;;;;;;19.88;33.50;99095.88;4974400;28;19929;-71
2022/11/03 00:59:30;;;;;;;;;;;;;;;19.91;33.36;99107.97;4989228;28;19965;-71
2022/11/03 01:01:56;;;;;;;;;;;;;;;19.87;33.30;99104.81;4974421;28;19918;-71
2022/11/03 01:07:05;;;;;;;;;;;;;;;19.87;33.49;99104.00;4974143;28;19925;-71
2022/11/03 01:09:37;;;;;;;;;;;;;;;19.87;33.50;99106.63;4972547;28;19918;-71
2022/11/03 01:12:13;;;;;;;;;;;;;;;19.86;33.52;99097.03;4973086;28;19922;-71
2022/11/03 01:14:39;;;;;;;;;;;;;;;19.84;33.47;99107.78;4973192;28;19918;-70
2022/11/03 01:17:05;;;;;;;;;;;;;;;19.82;33.37;99101.84;4972579;28;19918;-70
2022/11/03 01:19:30;;;;;;;;;;;;;;;19.80;33.39;99106.50;4973915;28;19918;-70
2022/11/03 01:21:55;;;;;;;;;;;;;;;19.78;33.50;99105.84;4973909;28;19967;-70
2022/11/03 01:24:21;;;;;;;;;;;;;;;19.76;33.43;99104.31;4973288;28;19918;-71
2022/11/03 01:26:46;;;;;;;;;;;;;;;19.75;33.57;99110.59;4974649;28;20361;-71
2022/11/03 01:29:11;;;;;;;;;;;;;;;19.75;33.56;99121.19;4988779;28;20517;-70
2022/11/03 01:31:37;;;;;;;;;;;;;;;19.75;33.44;99129.13;4973936;28;20009;-71
2022/11/03 01:34:02;;;;;;;;;;;;;;;19.73;33.46;99136.41;4988261;28;19918;-71
2022/11/03 01:36:27;;;;;;;;;;;;;;;19.68;33.25;99144.88;4972595;28;19962;-71
2022/11/03 01:38:53;;;;;;;;;;;;;;;19.58;33.39;99146.88;4973772;28;19960;-71
2022/11/03 01:41:19;;;;;;;;;;;;;;;19.52;33.34;99135.91;4988800;28;19978;-70
2022/11/03 01:43:46;;;;;;;;;;;;;;;19.50;33.45;99151.16;4972533;28;19922;-71
2022/11/03 01:46:24;;;;;;;;;;;;;;;19.47;33.40;99154.13;4972827;28;19919;-70
2022/11/03 01:49:00;;;;;;;;;;;;;;;19.44;33.52;99159.75;4973947;28;19925;-70
2022/11/03 01:51:25;;;;;;;;;;;;;;;19.44;33.50;99162.41;4976985;28;20289;-70
2022/11/03 01:53:51;;;;;;;;;;;;;;;19.41;33.60;99165.38;4992665;28;19925;-70
2022/11/03 01:56:16;;;;;;;;;;;;;;;19.39;33.67;99166.50;4976495;28;19918;-71
2022/11/03 01:58:41;;;;;;;;;;;;;;;19.37;33.77;99169.34;4977564;28;19922;-71
2022/11/03 02:01:07;;;;;;;;;;;;;;;19.36;33.84;99156.28;4976383;28;19918;-71
2022/11/03 02:03:37;;;;;;;;;;;;;;;19.35;33.96;99160.72;4992220;28;19919;-71
2022/11/03 02:06:03;;;;;;;;;;;;;;;19.33;34.15;99157.41;4976136;28;19918;-71
2022/11/03 02:08:39;;;;;;;;;;;;;;;19.31;34.23;99159.41;4976470;28;19953;-71
2022/11/03 02:12:05;;;;;;;;;;;;;;;19.29;34.41;99162.22;4956527;28;19922;-71
2022/11/03 02:13:49;;;;;;;;;;;;;;;19.26;34.64;99159.91;4957774;29;19969;-70
2022/11/03 02:16:15;;;;;;;;;;;;;;;19.25;34.75;99160.06;4956734;29;19922;-70
2022/11/03 02:18:40;;;;;;;;;;;;;;;19.24;34.88;99167.16;4957898;29;20350;-70
2022/11/03 02:21:08;;;;;;;;;;;;;;;19.23;34.87;99169.97;4956870;29;19953;-70
2022/11/03 02:23:42;;;;;;;;;;;;;;;19.21;35.24;99164.81;4956590;29;19919;-69
2022/11/03 02:26:07;;;;;;;;;;;;;;;19.20;35.25;99162.34;4957911;29;19970;-70
2022/11/03 02:28:32;;;;;;;;;;;;;;;19.16;35.41;99167.97;4956336;29;19922;-70
2022/11/03 02:31:16;;;;;;;;;;;;;;;19.15;35.44;99166.31;4956368;29;19918;-70
2022/11/03 02:33:45;;;;;;;;;;;;;;;19.13;35.61;99165.66;4957581;29;19922;-70
2022/11/03 02:36:19;;;;;;;;;;;;;;;19.12;35.70;99166.63;4956349;29;19926;-70
2022/11/03 02:38:55;;;;;;;;;;;;;;;19.12;35.75;99168.47;4956008;29;19923;-70
2022/11/03 02:41:21;;;;;;;;;;;;;;;19.12;35.68;99169.28;4956029;29;19997;-70
2022/11/03 02:43:46;;;;;;;;;;;;;;;19.11;35.79;99166.81;4956627;29;20299;-70
2022/11/03 02:46:12;;;;;;;;;;;;;;;19.11;35.84;99170.25;4956651;29;19922;-70
2022/11/03 02:48:37;;;;;;;;;;;;;;;19.10;35.86;99171.28;4956227;29;19919;-70
2022/11/03 02:51:03;;;;;;;;;;;;;;;19.10;35.84;99173.91;4956115;29;19919;-70
2022/11/03 02:53:28;;;;;;;;;;;;;;;19.10;35.78;99176.56;4956338;29;19919;-70
2022/11/03 02:55:56;;;;;;;;;;;;;;;19.07;35.90;99168.09;4939908;29;19922;-70
2022/11/03 02:58:39;;;;;;;;;;;;;;;19.05;35.91;99170.09;4956142;29;19957;-70
2022/11/03 03:01:33;;;;;;;;;;;;;;;19.00;35.94;99169.75;4956188;28;19925;-70
2022/11/03 03:04:05;;;;;;;;;;;;;;;18.96;36.11;99172.72;4955364;29;20333;-71
2022/11/03 03:06:45;;;;;;;;;;;;;;;18.93;36.26;99178.31;4939622;29;20019;-70
2022/11/03 03:09:11;;;;;;;;;;;;;;;18.89;36.20;99179.63;4955922;29;19925;-70
2022/11/03 03:11:36;;;;;;;;;;;;;;;18.86;36.35;99185.22;4956114;29;19950;-70
2022/11/03 03:14:06;;;;;;;;;;;;;;;18.83;36.32;99180.22;4939855;29;19992;-70
2022/11/03 03:16:32;;;;;;;;;;;;;;;18.82;36.34;99189.16;4956806;29;19934;-70
2022/11/03 03:19:02;;;;;;;;;;;;;;;18.80;36.45;99180.53;4956119;29;19981;-70
2022/11/03 03:21:32;;;;;;;;;;;;;;;18.78;36.46;99187.81;4955679;29;19919;-70
2022/11/03 03:24:00;;;;;;;;;;;;;;;18.74;36.51;99191.78;4960226;28;19922;-70
2022/11/03 03:26:27;;;;;;;;;;;;;;;18.69;36.62;99191.41;4974723;28;19918;-70
2022/11/03 03:28:54;;;;;;;;;;;;;;;18.68;36.61;99195.06;4974268;28;19929;-71
2022/11/03 03:31:19;;;;;;;;;;;;;;;18.65;36.67;99212.06;4990827;28;19918;-70
2022/11/03 03:33:45;;;;;;;;;;;;;;;18.62;36.78;99205.25;4974905;28;19941;-70
2022/11/03 03:36:12;;;;;;;;;;;;;;;18.58;36.96;99208.38;4974603;28;19977;-71
2022/11/03 03:38:41;;;;;;;;;;;;;;;18.56;36.94;99208.53;4974559;28;19922;-72
2022/11/03 03:41:07;;;;;;;;;;;;;;;18.55;37.06;99208.69;4974863;28;19918;-72
2022/11/03 03:43:32;;;;;;;;;;;;;;;18.53;37.06;99208.88;4974245;28;19944;-70
2022/11/03 03:45:59;;;;;;;;;;;;;;;18.52;36.88;99201.91;4974441;28;19961;-70
2022/11/03 03:48:24;;;;;;;;;;;;;;;18.49;37.11;99204.88;4975393;28;19925;-70
2022/11/03 03:50:50;;;;;;;;;;;;;;;18.46;37.17;99202.53;4975819;28;19918;-70
2022/11/03 03:53:15;;;;;;;;;;;;;;;18.44;37.25;99201.88;4974455;28;19997;-71
2022/11/03 03:55:41;;;;;;;;;;;;;;;18.41;37.28;99194.25;4974180;28;20393;-70
2022/11/03 03:58:07;;;;;;;;;;;;;;;18.37;37.28;99193.72;4974195;28;19948;-71
2022/11/03 04:00:32;;;;;;;;;;;;;;;18.36;37.27;99207.94;4974486;28;19918;-70
2022/11/03 04:02:58;;;;;;;;;;;;;;;18.34;37.31;99199.31;4975629;28;20010;-70
2022/11/03 04:05:23;;;;;;;;;;;;;;;18.32;37.21;99201.28;4973957;28;19918;-70
2022/11/03 04:07:49;;;;;;;;;;;;;;;18.30;37.26;99197.97;4974125;28;19918;-70
2022/11/03 04:10:21;;;;;;;;;;;;;;;18.27;37.69;99185.91;4975282;28;19925;-70
2022/11/03 04:22:15;;;;;;;;;;;;;;;18.25;37.66;99197.63;4974130;28;19924;-71
2022/11/03 04:23:55;;;;;;;;;;;;;;;18.23;37.99;99213.63;4974069;28;19924;-69
2022/11/03 04:26:23;;;;;;;;;;;;;;;18.25;38.04;99218.75;4973517;28;19918;-70
2022/11/03 04:28:49;;;;;;;;;;;;;;;18.24;37.98;99228.47;4974666;28;19925;-71
2022/11/03 04:31:15;;;;;;;;;;;;;;;18.24;37.99;99232.94;4957546;28;19923;-71
2022/11/03 04:33:41;;;;;;;;;;;;;;;18.47;52.07;99235.06;4954127;29;19977;-68
2022/11/03 04:36:11;;;;;;;;;;;;;;;18.94;51.21;99243.47;4955244;29;19927;-68
2022/11/03 04:38:36;;;;;;;;;;;;;;;19.29;50.20;99251.34;4954200;29;19973;-67
2022/11/03 04:41:05;;;;;;;;;;;;;;;19.53;49.77;99258.56;4954204;29;19922;-68
2022/11/03 04:43:34;;;;;;;;;;;;;;;19.73;48.93;99261.72;4953686;29;20001;-75
2022/11/03 04:45:59;;;;;;;;;;;;;;;19.92;48.39;99260.63;4955291;28;19941;-69
2022/11/03 04:48:26;;;;;;;;;;;;;;;20.07;47.59;99266.09;4970432;28;20386;-69
2022/11/03 04:50:52;;;;;;;;;;;;;;;20.21;46.91;99277.88;4955410;28;19985;-69
2022/11/03 04:53:18;;;;;;;;;;;;;;;20.33;46.38;99281.00;4953431;29;19925;-68
2022/11/03 04:55:43;;;;;;;;;;;;;;;20.39;45.51;99283.81;4955392;28;20362;-68
2022/11/03 04:58:29;;;;;;;;;;;;;;;20.34;42.89;99286.13;4954556;28;20350;-69
2022/11/03 05:00:58;;;;;;;;;;;;;;;19.99;40.29;99279.34;4953129;29;19930;-70
2022/11/03 05:03:24;;;;;;;;;;;;;;;19.72;39.67;99294.53;4953659;29;19918;-70
2022/11/03 05:05:50;;;;;;;;;;;;;;;19.53;39.21;99285.03;4935330;29;20445;-70
2022/11/03 05:08:15;;;;;;;;;;;;;;;19.41;38.90;99288.97;4953303;29;19973;-71
2022/11/03 05:10:42;;;;;;;;;;;;;;;19.32;38.65;99296.88;4953389;29;19918;-70
2022/11/03 05:13:19;;;;;;;;;;;;;;;19.26;38.58;99292.22;4954859;29;20291;-70
2022/11/03 05:15:45;;;;;;;;;;;;;;;19.27;38.20;99296.50;4953320;29;19919;-70
2022/11/03 05:18:18;;;;;;;;;;;;;;;19.34;37.79;99296.72;4937279;29;20414;-70
2022/11/03 05:20:55;;;;;;;;;;;;;;;19.40;37.68;99300.53;4954361;29;20313;-70
2022/11/03 05:23:21;;;;;;;;;;;;;;;19.37;37.60;99312.28;4936902;29;19973;-70
2022/11/03 05:25:49;;;;;;;;;;;;;;;19.43;37.33;99306.31;4954212;29;20309;-69
2022/11/03 05:28:25;;;;;;;;;;;;;;;19.58;37.01;99322.44;4954544;29;19918;-69
2022/11/03 05:30:50;;;;;;;;;;;;;;;19.77;36.54;99326.66;4953467;29;19918;-70
2022/11/03 05:33:36;;;;;;;;;;;;;;;19.97;36.15;99324.56;4937238;29;19924;-70
2022/11/03 05:36:02;;;;;;;;;;;;;;;20.21;35.67;99333.53;4953967;29;19926;-71
2022/11/03 05:38:31;;;;;;;;;;;;;;;20.41;35.11;99328.72;4953335;29;19926;-70
2022/11/03 05:40:56;;;;;;;;;;;;;;;20.64;34.87;99333.38;4937117;29;19946;-70
2022/11/03 05:43:22;;;;;;;;;;;;;;;20.80;34.50;99317.44;4940173;28;19965;-70
2022/11/03 05:45:51;;;;;;;;;;;;;;;21.03;34.11;99329.97;4955525;28;19922;-71
2022/11/03 05:48:16;;;;;;;;;;;;;;;21.35;33.56;99328.22;4936843;29;19918;-70
2022/11/03 05:50:42;;;;;;;;;;;;;;;21.61;32.95;99341.25;4954081;29;19974;-70
2022/11/03 05:53:22;;;;;;;;;;;;;;;21.78;32.81;99342.00;4953458;29;19918;-70
2022/11/03 05:55:48;;;;;;;;;;;;;;;21.97;32.19;99352.19;4954542;29;20003;-71
2022/11/03 05:58:26;;;;;;;;;;;;;;;21.95;31.89;99353.34;4953891;29;20267;-70
2022/11/03 06:00:52;;;;;;;;;;;;;;;21.73;32.02;99354.97;4953373;29;19922;-72
2022/11/03 06:03:22;;;;;;;;;;;;;;;21.82;41.94;99359.25;4956138;29;19969;-68
2022/11/03 06:05:47;;;;;;;;;;;;;;;21.82;37.85;99370.72;4955805;29;19919;-70
2022/11/03 06:08:14;;;;;;;;;;;;;;;21.82;39.28;99376.03;4954732;29;19926;-70
2022/11/03 06:10:40;;;;;;;;;;;;;;;21.89;38.10;99375.34;4953439;29;19922;-68
2022/11/03 06:13:19;;;;;;;;;;;;;;;21.96;37.36;99384.25;4954767;29;19927;-68
2022/11/03 06:15:45;;;;;;;;;;;;;;;22.40;35.90;99387.13;4952844;29;19970;-70
2022/11/03 06:18:20;;;;;;;;;;;;;;;23.02;33.03;99387.13;4955863;28;19926;-73
2022/11/03 06:20:55;;;;;;;;;;;;;;;23.75;33.03;99384.63;4957043;28;19918;-75
2022/11/03 06:23:20;;;;;;;;;;;;;;;24.42;31.40;99390.72;4956700;28;19918;-75
2022/11/03 06:25:45;;;;;;;;;;;;;;;24.99;27.82;99391.63;4941523;28;19973;-76
2022/11/03 06:28:31;;;;;;;;;;;;;;;25.80;25.96;99388.38;4957491;28;19918;-75
2022/11/03 06:30:56;;;;;;;;;;;;;;;26.69;24.54;99390.06;4955066;28;19918;-74
2022/11/03 06:33:22;;;;;;;;;;;;;;;27.53;24.10;99395.69;4940983;28;19945;-74
2022/11/03 06:35:48;;;;;;;;;;;;;;;28.25;23.20;99397.44;4958914;28;20302;-75
2022/11/03 06:38:17;;;;;;;;;;;;;;;28.77;21.86;99395.41;4944411;28;19925;-76
2022/11/03 06:40:43;;;;;;;;;;;;;;;29.07;21.70;99391.25;4959983;28;19926;-76
2022/11/03 06:43:40;;;;;;;;;;;;;;;29.27;21.77;99404.47;4960683;28;19977;-76
2022/11/03 06:46:13;;;;;;;;;;;;;;;29.08;21.61;99398.22;4898886;29;20442;-68
2022/11/03 06:48:38;;;;;;;;;;;;;;;27.44;22.80;99396.97;4898471;29;19919;-69
2022/11/03 06:51:11;;;;;;;;;;;;;;;27.38;23.12;99393.25;4898627;29;19930;-70
2022/11/03 06:53:37;;;;;;;;;;;;;;;27.52;22.63;99396.72;4895391;29;19997;-73
2022/11/03 06:56:06;;;;;;;;;;;;;;;27.62;22.56;99399.78;4849093;29;20365;-70
2022/11/03 06:58:33;;;;;;;;;;;;;;;27.53;22.63;99398.38;4864456;29;19920;-69
2022/11/03 07:01:00;;;;;;;;;;;;;;;27.57;22.49;99396.91;4863940;29;19959;-74
2022/11/03 07:03:29;;;;;;;;;;;;;;;27.69;22.60;99397.09;4863994;29;20010;-70
2022/11/03 07:06:12;;;;;;;;;;;;;;;27.84;23.93;99404.84;4864901;29;19931;-72
2022/11/03 07:08:44;;;;;;;;;;;;;;;28.15;23.36;99397.91;4864279;29;19968;-68
2022/11/03 07:11:10;;;;;;;;;;;;;;;28.47;22.79;99397.91;4879495;29;20338;-68
2022/11/03 07:13:35;;;;;;;;;;;;;;;28.68;22.92;99396.72;4863937;29;19920;-68
2022/11/03 07:16:01;;;;;;;;;;;;;;;28.65;22.36;99408.72;4864193;29;19920;-68
2022/11/03 07:18:28;;;;;;;;;;;;;;;28.86;21.69;99404.84;4863751;29;19920;-68
2022/11/03 07:20:53;;;;;;;;;;;;;;;29.07;21.00;99405.47;4877966;29;19918;-68
2022/11/03 07:23:20;;;;;;;;;;;;;;;29.34;20.86;99400.69;4940280;29;19919;-68
2022/11/03 07:25:48;;;;;;;;;;;;;;;29.53;20.30;99398.81;4939802;29;19961;-70
2022/11/03 07:28:14;;;;;;;;;;;;;;;29.75;20.10;99404.53;4939550;29;19953;-69
2022/11/03 07:30:39;;;;;;;;;;;;;;;29.88;20.36;99398.19;4967346;28;19954;-69
2022/11/03 07:33:15;;;;;;;;;;;;;;;30.04;20.51;99407.50;4976527;28;19922;-67
2022/11/03 07:35:41;;;;;;;;;;;;;;;30.06;20.44;99405.41;4958725;28;19929;-70
2022/11/03 07:38:13;;;;;;;;;;;;;;;30.03;20.40;99399.66;4958855;28;19918;-70
2022/11/03 07:40:38;;;;;;;;;;;;;;;30.00;20.40;99400.09;4958497;28;19918;-71
2022/11/03 07:43:13;;;;;;;;;;;;;;;30.05;20.52;99403.78;4975727;28;19918;-69
2022/11/03 07:45:42;;;;;;;;;;;;;;;30.11;21.53;99404.75;4976240;28;20271;-69
2022/11/03 07:48:18;;;;;;;;;;;;;;;30.07;21.15;99395.47;4958018;28;20014;-70
2022/11/03 07:50:43;;;;;;;;;;;;;;;30.08;21.11;99394.44;4958470;28;19918;-70
2022/11/03 07:53:28;;;;;;;;;;;;;;;30.16;20.66;99399.47;4948565;29;19929;-70
2022/11/03 07:55:55;;;;;;;;;;;;;;;30.11;21.33;99397.47;4954186;29;19919;-73
2022/11/03 07:58:38;;;;;;;;;;;;;;;30.11;21.90;99392.09;4955192;29;20374;-71
2022/11/03 08:01:15;;;;;;;;;;;;;;;30.30;21.44;99400.13;4938032;29;19919;-71
2022/11/03 08:03:42;;;;;;;;;;;;;;;30.60;21.64;99400.09;4937853;29;19926;-71
2022/11/03 08:06:08;;;;;;;;;;;;;;;30.69;20.65;99399.72;4954141;29;19919;-72
2022/11/03 08:08:33;;;;;;;;;;;;;;;30.32;21.00;99395.31;4934831;29;20039;-72
2022/11/03 08:10:58;;;;;;;;;;;;;;;29.95;21.35;99390.88;4923442;29;20315;-76
2022/11/03 08:13:24;;;;;;;;;;;;;;;30.11;21.36;99392.09;4939103;29;20398;-84
2022/11/03 08:15:51;;;;;;;;;;;;;;;30.28;21.52;99389.56;4944712;29;19954;-72
2022/11/03 08:18:16;;;;;;;;;;;;;;;30.43;21.50;99399.13;4953768;28;19965;-73
2022/11/03 08:20:41;;;;;;;;;;;;;;;30.32;21.51;99381.84;4937506;29;20306;-68
2022/11/03 08:23:07;;;;;;;;;;;;;;;30.44;20.66;99392.66;4954952;29;20317;-69
2022/11/03 08:25:32;;;;;;;;;;;;;;;30.47;21.65;99392.19;4953963;29;19922;-70
2022/11/03 08:27:59;;;;;;;;;;;;;;;30.54;21.52;99394.81;4938546;29;19926;-67
2022/11/03 08:30:24;;;;;;;;;;;;;;;30.52;20.67;99396.88;4939012;29;20345;-69
2022/11/03 08:32:50;;;;;;;;;;;;;;;30.55;20.36;99388.34;4922863;29;19919;-68
2022/11/03 08:35:15;;;;;;;;;;;;;;;30.49;20.89;99388.22;4938597;29;19927;-69
2022/11/03 08:37:41;;;;;;;;;;;;;;;30.33;21.18;99391.56;4936317;29;20363;-67
2022/11/03 08:40:06;;;;;;;;;;;;;;;30.40;21.42;99395.00;4954373;29;19962;-70
2022/11/03 08:42:32;;;;;;;;;;;;;;;30.27;21.27;99382.53;4946296;28;20008;-69
2022/11/03 08:44:58;;;;;;;;;;;;;;;30.45;21.21;99388.91;4973461;28;19968;-69
2022/11/03 08:47:23;;;;;;;;;;;;;;;30.59;21.37;99390.34;4989720;28;19918;-70
2022/11/03 08:49:48;;;;;;;;;;;;;;;30.66;21.18;99384.84;4969940;28;20302;-74
2022/11/03 08:52:15;;;;;;;;;;;;;;;31.08;20.41;99384.75;4953254;29;19930;-72
2022/11/03 08:54:40;;;;;;;;;;;;;;;31.56;19.84;99391.75;4954332;29;19919;-73
2022/11/03 08:57:05;;;;;;;;;;;;;;;32.28;19.27;99395.00;4954708;29;19926;-72
2022/11/03 08:59:31;;;;;;;;;;;;;;;33.09;18.01;99388.44;4953046;28;20378;-72
2022/11/03 09:01:57;;;;;;;;;;;;;;;34.26;17.65;99385.50;4956315;29;19970;-78
2022/11/03 09:04:22;;;;;;;;;;;;;;;35.58;16.57;99373.06;4973537;28;19926;-80
2022/11/03 09:06:47;;;;;;;;;;;;;;;36.91;14.99;99385.16;4954074;29;20029;-78
2022/11/03 09:09:13;;;;;;;;;;;;;;;37.83;14.43;99381.31;4953707;29;20393;-76
2022/11/03 09:11:38;;;;;;;;;;;;;;;37.91;14.21;99377.19;4953886;29;19919;-78
2022/11/03 09:14:03;;;;;;;;;;;;;;;37.58;14.19;99374.88;4954116;29;19919;-81
2022/11/03 09:16:29;;;;;;;;;;;;;;;36.93;14.87;99370.19;4938105;29;19918;-85
2022/11/03 09:18:54;;;;;;;;;;;;;;;36.39;15.72;99366.16;4953571;29;20412;-78
2022/11/03 09:21:19;;;;;;;;;;;;;;;36.03;15.60;99362.59;4953614;29;20365;-80
2022/11/03 09:23:45;;;;;;;;;;;;;;;35.77;15.70;99351.72;4938251;29;19919;-78
2022/11/03 09:26:10;;;;;;;;;;;;;;;35.61;16.01;99352.72;4937853;29;19919;-79
2022/11/03 09:28:35;;;;;;;;;;;;;;;35.59;15.68;99352.16;4937861;29;19973;-78
2022/11/03 09:31:01;;;;;;;;;;;;;;;35.67;15.66;99348.91;4953711;29;19942;-79
2022/11/03 09:33:26;;;;;;;;;;;;;;;35.62;15.93;99349.72;4937427;29;19925;-78
2022/11/03 09:35:51;;;;;;;;;;;;;;;35.66;15.66;99341.84;4955713;28;19927;-79
2022/11/03 09:38:17;;;;;;;;;;;;;;;35.60;15.77;99345.66;4957266;28;19925;-79
2022/11/03 09:40:43;;;;;;;;;;;;;;;35.48;15.80;99340.47;4956822;28;20282;-77
2022/11/03 09:43:08;;;;;;;;;;;;;;;35.46;15.63;99338.00;4956582;28;19919;-79
2022/11/03 09:45:33;;;;;;;;;;;;;;;35.51;15.97;99337.22;4956964;28;19918;-80
2022/11/03 09:47:59;;;;;;;;;;;;;;;35.59;15.94;99339.41;4940763;28;19926;-78
2022/11/03 09:50:24;;;;;;;;;;;;;;;35.53;16.10;99343.19;4956456;28;19997;-78
2022/11/03 09:52:54;;;;;;;;;;;;;;;35.44;15.94;99340.19;4956235;28;20382;-79
2022/11/03 09:55:23;;;;;;;;;;;;;;;35.30;15.29;99337.16;4957174;28;20008;-77
2022/11/03 09:57:51;;;;;;;;;;;;;;;35.22;15.73;99332.19;4956506;28;19933;-78
2022/11/03 10:00:19;;;;;;;;;;;;;;;35.12;15.74;99327.56;4956186;28;19919;-78
2022/11/03 10:02:45;;;;;;;;;;;;;;;35.07;16.32;99324.78;4956594;28;20353;-78
2022/11/03 10:05:14;;;;;;;;;;;;;;;35.06;16.18;99323.19;4956689;28;19918;-78
2022/11/03 10:07:39;;;;;;;;;;;;;;;35.07;16.48;99318.56;4956709;28;20279;-78
2022/11/03 10:10:05;;;;;;;;;;;;;;;34.99;16.25;99324.50;4957643;28;20035;-78
2022/11/03 10:12:30;;;;;;;;;;;;;;;34.88;16.32;99319.00;4978016;28;19918;-79
2022/11/03 10:14:56;;;;;;;;;;;;;;;34.77;16.60;99307.28;4977529;28;19918;-79
2022/11/03 10:17:25;;;;;;;;;;;;;;;34.40;16.22;99310.03;4977742;28;20278;-79
2022/11/03 10:19:51;;;;;;;;;;;;;;;34.14;16.36;99309.78;4960004;28;19918;-79
2022/11/03 10:22:17;;;;;;;;;;;;;;;34.02;16.99;99304.56;4960044;28;19918;-79
2022/11/03 10:24:42;;;;;;;;;;;;;;;33.85;17.18;99304.66;4976379;28;19929;-77
2022/11/03 10:27:24;;;;;;;;;;;;;;;33.75;17.34;99306.44;4977569;28;19919;-78
2022/11/03 10:30:02;;;;;;;;;;;;;;;33.65;17.35;99296.31;4959756;28;20368;-79
2022/11/03 10:32:28;;;;;;;;;;;;;;;33.51;17.03;99293.19;4960162;28;19918;-78
2022/11/03 10:34:53;;;;;;;;;;;;;;;33.42;17.39;99297.44;4960170;28;19926;-78
2022/11/03 10:37:22;;;;;;;;;;;;;;;33.37;17.66;99284.69;4971191;28;20345;-78
2022/11/03 10:39:55;;;;;;;;;;;;;;;33.31;17.57;99280.28;4975891;28;19933;-79
2022/11/03 10:42:23;;;;;;;;;;;;;;;33.22;17.69;99279.91;4975874;28;20386;-84
2022/11/03 10:44:52;;;;;;;;;;;;;;;33.11;17.71;99284.31;4992280;28;19922;-78
2022/11/03 10:47:36;;;;;;;;;;;;;;;32.93;17.86;99277.34;4976210;28;19921;-78
2022/11/03 10:50:07;;;;;;;;;;;;;;;32.79;18.15;99265.28;4991894;28;20027;-78
2022/11/03 10:52:32;;;;;;;;;;;;;;;32.62;17.87;99257.19;4976104;28;19933;-78
2022/11/03 10:54:58;;;;;;;;;;;;;;;32.49;17.92;99262.94;4976087;28;19937;-78
2022/11/03 10:57:23;;;;;;;;;;;;;;;32.32;17.98;99260.25;4975563;28;19918;-77
2022/11/03 10:59:49;;;;;;;;;;;;;;;32.20;18.24;99247.69;4975753;28;20293;-78
2022/11/03 11:02:18;;;;;;;;;;;;;;;32.04;18.48;99256.56;4975906;28;19918;-77
2022/11/03 11:04:47;;;;;;;;;;;;;;;31.88;18.58;99248.22;4975853;28;19918;-78
2022/11/03 11:07:31;;;;;;;;;;;;;;;31.75;18.51;99237.72;4975492;28;19922;-78
2022/11/03 11:09:57;;;;;;;;;;;;;;;31.50;19.16;99238.91;4965710;28;19923;-77
2022/11/03 11:12:22;;;;;;;;;;;;;;;31.36;18.96;99232.16;4956389;29;19926;-79
2022/11/03 11:14:52;;;;;;;;;;;;;;;31.26;19.22;99229.28;4955844;29;20441;-78
2022/11/03 11:17:36;;;;;;;;;;;;;;;31.14;19.27;99227.44;4955423;29;19941;-78
2022/11/03 11:20:22;;;;;;;;;;;;;;;31.00;19.59;99221.50;4957862;29;19919;-77
2022/11/03 11:22:48;;;;;;;;;;;;;;;30.90;19.80;99220.44;4956346;28;19941;-77
2022/11/03 11:25:13;;;;;;;;;;;;;;;30.77;19.68;99219.66;4956988;29;20448;-78
2022/11/03 11:27:45;;;;;;;;;;;;;;;30.64;19.92;99215.34;4955675;29;19925;-77
2022/11/03 11:30:19;;;;;;;;;;;;;;;30.48;20.54;99208.00;4971771;28;19919;-79
2022/11/03 11:32:44;;;;;;;;;;;;;;;30.27;20.29;99207.50;4957411;29;19919;-79
2022/11/03 11:35:11;;;;;;;;;;;;;;;30.16;20.83;99197.56;4956800;29;19923;-78
2022/11/03 11:37:36;;;;;;;;;;;;;;;30.08;21.03;99196.03;4939662;29;20366;-79
2022/11/03 11:40:11;;;;;;;;;;;;;;;29.99;21.08;99186.66;4939584;29;19950;-77
2022/11/03 11:42:57;;;;;;;;;;;;;;;29.85;21.08;99180.69;4956740;29;19919;-79
2022/11/03 11:45:41;;;;;;;;;;;;;;;29.73;21.64;99188.72;4956953;28;19922;-78
2022/11/03 11:48:15;;;;;;;;;;;;;;;29.51;21.26;99176.84;4971733;28;19919;-78
2022/11/03 11:50:41;;;;;;;;;;;;;;;29.39;21.69;99172.25;4955302;29;19971;-78
2022/11/03 11:53:06;;;;;;;;;;;;;;;29.34;21.78;99176.72;4939655;29;19958;-79
2022/11/03 11:55:37;;;;;;;;;;;;;;;29.21;21.96;99170.47;4971411;28;19925;-78
2022/11/03 11:58:03;;;;;;;;;;;;;;;29.13;21.71;99172.59;4956589;28;19929;-78
2022/11/03 12:00:29;;;;;;;;;;;;;;;28.98;22.20;99167.66;4955429;29;19919;-79
2022/11/03 12:02:55;;;;;;;;;;;;;;;28.87;22.16;99170.03;4939466;29;20370;-78
2022/11/03 12:05:25;;;;;;;;;;;;;;;28.77;22.08;99167.06;4956494;28;19997;-77
2022/11/03 12:07:50;;;;;;;;;;;;;;;28.61;22.53;99165.81;4955276;28;19973;-78
2022/11/03 12:10:15;;;;;;;;;;;;;;;28.54;22.74;99165.03;4954896;29;20342;-78
2022/11/03 12:12:40;;;;;;;;;;;;;;;28.43;22.70;99161.25;4971121;28;20469;-77
2022/11/03 12:15:26;;;;;;;;;;;;;;;28.27;22.93;99165.31;4955339;29;19925;-78
2022/11/03 12:17:51;;;;;;;;;;;;;;;28.18;22.97;99155.94;4970619;28;19918;-78
2022/11/03 12:20:35;;;;;;;;;;;;;;;28.09;23.10;99160.75;4938841;29;20090;-79
2022/11/03 12:23:00;;;;;;;;;;;;;;;27.93;23.25;99154.06;4955068;29;20001;-78
2022/11/03 12:25:33;;;;;;;;;;;;;;;27.91;23.26;99152.63;4955165;28;20346;-77
2022/11/03 12:27:59;;;;;;;;;;;;;;;27.80;23.14;99146.97;4973927;28;19925;-78
2022/11/03 12:30:24;;;;;;;;;;;;;;;27.73;23.53;99146.19;4973623;28;20009;-79
2022/11/03 12:32:50;;;;;;;;;;;;;;;27.68;23.54;99145.22;4974032;28;19969;-82
2022/11/03 12:35:16;;;;;;;;;;;;;;;27.61;23.59;99151.44;4974031;28;19930;-78
2022/11/03 12:37:41;;;;;;;;;;;;;;;27.52;23.58;99154.63;4973536;28;19937;-79
2022/11/03 12:40:07;;;;;;;;;;;;;;;27.43;23.79;99146.00;4973797;28;19926;-78
2022/11/03 12:42:32;;;;;;;;;;;;;;;27.42;23.83;99153.22;4973660;28;19929;-78
2022/11/03 12:44:57;;;;;;;;;;;;;;;27.33;23.83;99145.69;4973562;28;19997;-79
2022/11/03 12:47:23;;;;;;;;;;;;;;;27.21;23.92;99146.31;4973399;28;19925;-79
2022/11/03 12:49:48;;;;;;;;;;;;;;;27.13;23.70;99143.06;4973551;28;19976;-81
2022/11/03 12:52:14;;;;;;;;;;;;;;;27.03;24.09;99136.31;4973383;28;19918;-77
2022/11/03 12:54:40;;;;;;;;;;;;;;;26.95;24.25;99138.44;4989553;28;19925;-78
2022/11/03 12:57:06;;;;;;;;;;;;;;;26.90;23.91;99128.38;4973955;28;19986;-79
2022/11/03 12:59:31;;;;;;;;;;;;;;;26.83;24.00;99136.41;4974538;28;19950;-79
2022/11/03 13:01:56;;;;;;;;;;;;;;;26.77;24.17;99126.56;4973378;28;20306;-79
2022/11/03 13:04:22;;;;;;;;;;;;;;;26.74;24.17;99124.31;4974582;28;19922;-78